Time;durP1;ratioP1;P1;durP2;ratioP2;P2;SDS_P1;SDS_P2;PMS_P1;PMS_P2;Temp;Humidity;BMP_temperature;BMP_pressure;BME280_temperature;BME280_humidity;BME280_pressure;Samples;Min_cycle;Max_cycle;Signal;HPM_P1;HPM_P2
2023/08/01 06:43:54;;;;;;;3.83;0.98;;;;;;;17.53;91.94;100004.59;4972797;28;96906;-27
2023/08/01 06:46:20;;;;;;;2.58;1.05;;;;;;;17.61;90.96;100014.72;4974164;28;99815;-27
2023/08/01 06:48:45;;;;;;;2.08;0.98;;;;;;;17.47;91.04;100005.25;4974374;28;98252;-28
2023/08/01 06:51:11;;;;;;;1.70;0.90;;;;;;;17.54;91.57;100008.19;4974407;28;96723;-27
2023/08/01 06:53:36;;;;;;;1.70;0.65;;;;;;;17.54;91.77;100008.19;4972809;28;96814;-28
2023/08/01 06:56:02;;;;;;;1.73;0.77;;;;;;;17.52;92.53;100005.63;4974183;28;97893;-27
2023/08/01 06:58:27;;;;;;;4.75;1.08;;;;;;;17.48;92.05;100008.84;4973709;28;99398;-28
2023/08/01 07:00:52;;;;;;;5.28;1.02;;;;;;;17.34;91.73;100011.13;4972571;28;96566;-27
2023/08/01 07:03:18;;;;;;;0.98;0.60;;;;;;;17.36;92.95;100030.13;4973479;28;96750;-27
2023/08/01 07:05:43;;;;;;;2.35;1.00;;;;;;;17.20;93.29;100023.47;4973647;28;97409;-27
2023/08/01 07:08:08;;;;;;;2.53;0.77;;;;;;;17.11;93.32;100029.94;4974393;28;97653;-27
2023/08/01 07:10:35;;;;;;;1.25;0.52;;;;;;;17.17;93.54;100033.91;4974126;28;96588;-27
2023/08/01 07:13:03;;;;;;;2.97;1.20;;;;;;;17.44;92.45;100034.81;4972227;28;96836;-27
2023/08/01 07:15:29;;;;;;;2.88;0.98;;;;;;;17.76;90.88;100037.78;4972334;28;101009;-28
2023/08/01 07:17:54;;;;;;;2.30;1.00;;;;;;;17.96;89.96;100035.72;4973586;28;99099;-28
2023/08/01 07:20:20;;;;;;;2.20;0.77;;;;;;;18.09;88.05;100040.78;4973621;28;96718;-27
2023/08/01 07:22:45;;;;;;;2.03;0.85;;;;;;;18.25;88.19;100029.84;4974124;28;96499;-27
2023/08/01 07:25:11;;;;;;;1.60;0.77;;;;;;;18.42;87.79;100033.56;4972339;28;101009;-27
2023/08/01 07:27:37;;;;;;;2.13;0.77;;;;;;;18.48;86.77;100045.72;4973571;28;96934;-27
2023/08/01 07:30:04;;;;;;;1.05;0.60;;;;;;;18.20;86.23;100034.97;4973192;28;96424;-27
2023/08/01 07:32:29;;;;;;;1.95;0.80;;;;;;;18.02;87.55;100047.91;4972289;28;96835;-27
2023/08/01 07:34:55;;;;;;;2.60;1.10;;;;;;;18.04;87.44;100048.59;4973558;28;97557;-27
2023/08/01 07:37:20;;;;;;;1.65;0.82;;;;;;;18.17;87.24;100046.28;4973617;28;97437;-27
2023/08/01 07:39:45;;;;;;;3.30;0.73;;;;;;;18.20;85.91;100043.19;4973632;28;96525;-27
2023/08/01 07:42:11;;;;;;;2.90;1.00;;;;;;;18.33;86.06;100042.75;4973466;28;96840;-27
2023/08/01 07:44:36;;;;;;;2.88;1.00;;;;;;;18.46;86.23;100043.16;4972490;28;99422;-27
2023/08/01 07:47:02;;;;;;;1.10;0.70;;;;;;;18.71;84.77;100039.63;4972339;28;100534;-27
2023/08/01 07:49:28;;;;;;;5.97;1.02;;;;;;;18.97;84.69;100043.16;4972900;28;96664;-27
2023/08/01 07:51:53;;;;;;;2.50;1.10;;;;;;;19.00;83.38;100053.81;4971667;28;96860;-29
2023/08/01 07:54:19;;;;;;;2.85;0.93;;;;;;;18.89;83.05;100057.72;4972728;28;97956;-27
2023/08/01 07:56:45;;;;;;;1.50;0.63;;;;;;;18.65;83.03;100047.50;4972189;28;99594;-27
2023/08/01 07:59:11;;;;;;;1.38;0.75;;;;;;;18.59;83.50;100050.94;4971536;28;96768;-27
2023/08/01 08:01:36;;;;;;;4.90;1.30;;;;;;;18.47;82.97;100049.47;4971950;28;97002;-26
2023/08/01 08:04:01;;;;;;;3.80;0.70;;;;;;;18.60;82.65;100060.84;4972900;28;99567;-27
2023/08/01 08:06:27;;;;;;;2.17;0.98;;;;;;;18.67;83.50;100050.09;4972829;28;98728;-27
2023/08/01 08:08:52;;;;;;;1.75;0.68;;;;;;;18.91;81.97;100056.72;4971405;28;96576;-32
2023/08/01 08:11:17;;;;;;;2.38;0.93;;;;;;;19.30;81.90;100056.91;4970822;28;97108;-30
2023/08/01 08:13:43;;;;;;;1.08;0.50;;;;;;;19.50;81.33;100052.81;4969877;28;97879;-30
2023/08/01 08:16:08;;;;;;;3.22;0.90;;;;;;;19.56;79.63;100072.38;4970341;28;99133;-29
2023/08/01 08:18:33;;;;;;;2.45;1.10;;;;;;;19.47;79.40;100069.66;4970262;28;97171;-27
2023/08/01 08:20:59;;;;;;;2.67;0.70;;;;;;;19.24;79.46;100058.47;4970810;28;96925;-32
2023/08/01 08:23:24;;;;;;;1.15;0.70;;;;;;;19.03;79.94;100071.81;4970720;28;97723;-27
2023/08/01 08:25:50;;;;;;;1.17;0.60;;;;;;;18.82;81.02;100061.31;4972321;28;97300;-27
2023/08/01 08:28:27;;;;;;;1.88;0.60;;;;;;;18.65;82.01;100060.38;4971387;28;96643;-28
2023/08/01 08:30:52;;;;;;;1.15;0.60;;;;;;;18.57;83.45;100069.44;4971324;28;96827;-28
2023/08/01 08:33:21;;;;;;;3.72;0.70;;;;;;;18.41;83.12;100072.94;4972427;28;99481;-28
2023/08/01 08:35:46;;;;;;;0.82;0.65;;;;;;;18.29;81.70;100065.19;4971610;28;100868;-27
2023/08/01 08:38:11;;;;;;;1.73;0.70;;;;;;;18.19;81.98;100070.78;4972812;28;96562;-27
2023/08/01 08:40:41;;;;;;;1.35;0.90;;;;;;;18.13;82.99;100066.81;4972753;28;96975;-28
2023/08/01 08:43:08;;;;;;;1.05;0.63;;;;;;;18.15;83.56;100080.34;4970460;28;101060;-28
2023/08/01 08:45:35;;;;;;;3.15;1.02;;;;;;;18.25;83.60;100086.56;4972433;28;97982;-27
2023/08/01 08:48:08;;;;;;;4.28;0.73;;;;;;;18.56;82.02;100081.41;4971098;28;96701;-27
2023/08/01 08:50:35;;;;;;;2.47;0.73;;;;;;;18.70;81.54;100082.66;4972830;28;96520;-27
2023/08/01 08:53:01;;;;;;;1.23;0.70;;;;;;;18.86;80.32;100087.41;4970617;28;100843;-27
2023/08/01 08:55:28;;;;;;;2.42;0.93;;;;;;;19.13;80.02;100082.66;4971068;28;101301;-27
2023/08/01 08:57:54;;;;;;;3.67;0.98;;;;;;;19.45;79.91;100071.72;4970591;28;96684;-27
2023/08/01 09:00:21;;;;;;;2.60;0.80;;;;;;;19.79;77.95;100081.69;4971427;28;96974;-27
2023/08/01 09:02:47;;;;;;;1.23;0.57;;;;;;;19.65;77.30;100085.09;4970880;28;101629;-26
2023/08/01 09:05:12;;;;;;;2.45;0.63;;;;;;;19.39;76.83;100080.63;4972422;28;97752;-27
2023/08/01 09:07:42;;;;;;;1.90;0.80;;;;;;;19.34;78.47;100076.69;4971564;28;96635;-27
2023/08/01 09:10:08;;;;;;;1.45;0.60;;;;;;;19.35;77.98;100079.22;4970998;28;97344;-26
2023/08/01 09:12:35;;;;;;;3.03;0.82;;;;;;;19.18;77.39;100081.09;4970768;28;101262;-27
2023/08/01 09:15:00;;;;;;;1.88;0.73;;;;;;;18.99;76.31;100082.25;4972140;28;97748;-27
2023/08/01 09:17:26;;;;;;;1.42;0.82;;;;;;;18.75;76.92;100093.16;4972423;28;97303;-27
2023/08/01 09:20:11;;;;;;;4.65;1.05;;;;;;;18.65;77.07;100099.63;4972350;28;96824;-27
2023/08/01 09:22:44;;;;;;;2.30;0.75;;;;;;;18.92;78.32;100097.69;4971793;28;98051;-28
2023/08/01 09:25:10;;;;;;;4.47;0.80;;;;;;;19.08;75.92;100091.38;4971868;28;100902;-27
2023/08/01 09:27:36;;;;;;;0.93;0.60;;;;;;;18.97;75.91;100089.81;4974351;28;96685;-28
2023/08/01 09:30:10;;;;;;;2.42;0.85;;;;;;;18.84;76.28;100092.19;4975746;28;96797;-28
2023/08/01 09:32:35;;;;;;;2.45;0.63;;;;;;;18.84;77.78;100100.41;4973430;28;99606;-27
2023/08/01 09:35:00;;;;;;;2.42;0.80;;;;;;;19.24;76.37;100104.31;4975187;28;98797;-27
2023/08/01 09:37:26;;;;;;;2.55;0.93;;;;;;;19.71;74.55;100109.16;4975572;28;96524;-27
2023/08/01 09:39:55;;;;;;;3.05;0.93;;;;;;;20.12;73.90;100104.50;4975541;28;96757;-27
2023/08/01 09:42:21;;;;;;;1.40;0.70;;;;;;;20.30;71.94;100109.75;4973810;28;101124;-27
2023/08/01 09:44:49;;;;;;;2.13;0.85;;;;;;;20.36;71.59;100102.72;4974795;28;99154;-27
2023/08/01 09:47:14;;;;;;;2.22;0.80;;;;;;;20.37;71.46;100109.91;4973780;28;96697;-26
2023/08/01 09:49:49;;;;;;;2.40;1.00;;;;;;;20.52;69.97;100101.78;4975864;28;96781;-27
2023/08/01 09:52:15;;;;;;;2.13;0.60;;;;;;;20.73;68.89;100103.97;4973824;28;100877;-27
2023/08/01 09:54:40;;;;;;;0.63;0.30;;;;;;;20.97;69.16;100108.50;4975023;28;97345;-27
2023/08/01 09:57:06;;;;;;;3.08;0.82;;;;;;;21.10;69.20;100107.94;4974875;28;96741;-26
2023/08/01 09:59:33;;;;;;;1.48;0.55;;;;;;;21.08;68.67;100102.59;4973394;28;97025;-28
2023/08/01 10:02:01;;;;;;;2.20;0.82;;;;;;;21.14;68.97;100118.41;4973553;28;101378;-27
2023/08/01 10:04:30;;;;;;;5.35;0.88;;;;;;;21.01;69.56;100120.88;4973646;28;100993;-27
2023/08/01 10:07:11;;;;;;;3.83;0.65;;;;;;;20.94;67.47;100117.13;4973669;28;96585;-27
2023/08/01 10:09:37;;;;;;;1.30;0.65;;;;;;;20.87;67.87;100129.91;4973711;28;96606;-27
2023/08/01 10:12:05;;;;;;;2.78;0.55;;;;;;;21.02;68.24;100114.31;4973545;28;99353;-27
2023/08/01 10:14:32;;;;;;;2.95;0.73;;;;;;;21.28;67.25;100132.41;4973502;28;99419;-27
2023/08/01 10:16:58;;;;;;;1.42;0.65;;;;;;;21.63;65.59;100120.84;4973553;28;96549;-28
2023/08/01 10:19:24;;;;;;;0.75;0.40;;;;;;;21.86;65.45;100114.47;4973503;28;96830;-27
2023/08/01 10:21:50;;;;;;;1.58;0.63;;;;;;;22.18;64.75;100112.41;4972844;28;100831;-27
2023/08/01 10:24:17;;;;;;;5.10;1.10;;;;;;;22.32;64.96;100108.00;4973208;28;101176;-28
2023/08/01 10:26:45;;;;;;;1.27;0.60;;;;;;;22.31;64.78;100120.06;4973348;28;96558;-27
2023/08/01 10:29:11;;;;;;;1.75;0.80;;;;;;;22.50;63.92;100122.28;4973425;28;96783;-27
2023/08/01 10:31:36;;;;;;;1.13;0.50;;;;;;;22.21;63.73;100125.84;4974645;28;97986;-28
2023/08/01 10:34:07;;;;;;;1.38;0.47;;;;;;;21.78;65.57;100122.78;4974597;28;98389;-27
2023/08/01 10:36:32;;;;;;;1.23;0.60;;;;;;;21.66;65.55;100121.50;4973031;28;96661;-27
2023/08/01 10:38:59;;;;;;;2.40;0.93;;;;;;;21.88;66.15;100126.16;4973654;28;96866;-27
2023/08/01 10:41:30;;;;;;;1.83;0.65;;;;;;;22.20;65.94;100133.28;4972671;28;101176;-28
2023/08/01 10:44:08;;;;;;;2.10;0.70;;;;;;;22.44;64.00;100139.59;4972419;28;101000;-27
2023/08/01 10:46:49;;;;;;;1.90;0.45;;;;;;;22.67;63.31;100134.00;4972631;28;97653;-27
2023/08/01 10:49:15;;;;;;;2.73;0.57;;;;;;;22.95;64.36;100131.38;4972953;28;96820;-27
2023/08/01 10:51:41;;;;;;;1.83;0.60;;;;;;;23.16;62.46;100135.28;4972723;28;101353;-29
2023/08/01 10:54:06;;;;;;;1.50;0.80;;;;;;;23.41;62.38;100130.28;4973995;28;99514;-27
2023/08/01 10:56:32;;;;;;;4.18;1.20;;;;;;;23.47;61.58;100132.22;4974390;28;96700;-27
2023/08/01 10:58:58;;;;;;;3.42;0.98;;;;;;;22.96;62.26;100140.53;4973830;28;96662;-27
2023/08/01 11:01:26;;;;;;;3.35;0.98;;;;;;;22.25;63.72;100141.00;4972659;28;101026;-28
2023/08/01 11:03:51;;;;;;;4.80;0.80;;;;;;;22.04;65.04;100144.44;4974367;28;97838;-27
2023/08/01 11:06:17;;;;;;;2.25;1.10;;;;;;;22.12;65.18;100151.78;4974161;28;96514;-27
2023/08/01 11:08:43;;;;;;;3.97;1.10;;;;;;;21.78;65.68;100153.09;4973913;28;96655;-28
2023/08/01 11:11:12;;;;;;;2.53;0.80;;;;;;;21.38;66.40;100152.31;4973386;28;99372;-27
2023/08/01 11:13:38;;;;;;;1.30;0.73;;;;;;;21.16;66.83;100165.88;4972410;28;101540;-27
2023/08/01 11:16:05;;;;;;;1.55;0.70;;;;;;;20.90;67.87;100176.34;4974187;28;96471;-27
2023/08/01 11:18:40;;;;;;;3.50;1.02;;;;;;;20.87;68.01;100172.03;4972625;28;96839;-27
2023/08/01 11:21:06;;;;;;;2.92;0.95;;;;;;;21.32;66.66;100172.34;4972237;28;101077;-28
2023/08/01 11:23:31;;;;;;;3.90;1.02;;;;;;;21.70;64.15;100178.00;4973763;28;97281;-27
2023/08/01 11:25:57;;;;;;;1.60;0.50;;;;;;;22.00;63.23;100173.44;4973616;28;96715;-27
2023/08/01 11:28:24;;;;;;;1.55;0.80;;;;;;;22.20;63.66;100173.78;4972728;28;97014;-27
2023/08/01 11:30:49;;;;;;;1.05;0.65;;;;;;;22.53;61.58;100163.31;4973650;28;97954;-27
2023/08/01 11:33:15;;;;;;;0.95;0.57;;;;;;;22.22;61.16;100178.09;4973818;28;97161;-27
2023/08/01 11:35:42;;;;;;;1.45;0.60;;;;;;;22.05;63.51;100179.28;4973132;28;96657;-27
2023/08/01 11:38:07;;;;;;;3.22;0.80;;;;;;;21.98;63.53;100176.41;4956074;28;96886;-27
2023/08/01 11:40:34;;;;;;;1.58;0.52;;;;;;;22.41;63.32;100176.72;4973538;28;98026;-27
2023/08/01 11:42:59;;;;;;;1.10;0.57;;;;;;;22.71;61.48;100176.72;4972690;28;99032;-28
2023/08/01 11:45:25;;;;;;;1.05;0.65;;;;;;;22.98;61.12;100177.13;4973812;28;96560;-28
2023/08/01 11:47:51;;;;;;;4.65;1.15;;;;;;;23.18;60.16;100175.47;4973007;28;96743;-27
2023/08/01 11:50:24;;;;;;;4.20;1.08;;;;;;;22.96;60.36;100181.97;4972833;28;99569;-27
2023/08/01 11:52:49;;;;;;;1.27;0.55;;;;;;;23.15;60.90;100199.91;4973749;28;97268;-28
2023/08/01 11:55:22;;;;;;;0.98;0.60;;;;;;;23.25;60.03;100184.72;4973320;28;96631;-27
2023/08/01 11:57:55;;;;;;;3.53;0.82;;;;;;;23.03;60.26;100175.50;4972817;28;96845;-27
2023/08/01 12:00:22;;;;;;;1.63;0.80;;;;;;;22.97;60.33;100179.00;4971336;28;100908;-27
2023/08/01 12:02:48;;;;;;;1.25;0.60;;;;;;;23.20;59.78;100181.69;4972910;28;99515;-27
2023/08/01 12:05:21;;;;;;;1.13;0.60;;;;;;;23.36;59.63;100197.19;4973345;28;96552;-27
2023/08/01 12:07:47;;;;;;;1.98;0.88;;;;;;;22.98;60.10;100193.69;4971824;28;96768;-27
2023/08/01 12:10:12;;;;;;;3.50;0.65;;;;;;;22.65;59.87;100188.53;4972968;28;99283;-27
2023/08/01 12:12:45;;;;;;;1.42;0.57;;;;;;;22.51;59.46;100203.19;4973157;28;97787;-27
2023/08/01 12:15:10;;;;;;;4.63;1.02;;;;;;;22.28;61.59;100204.09;4971688;28;96842;-27
2023/08/01 12:17:35;;;;;;;3.60;1.20;;;;;;;22.36;61.41;100203.16;4973400;28;96861;-27
2023/08/01 12:20:01;;;;;;;3.40;0.70;;;;;;;22.55;61.65;100205.38;4972666;28;99433;-27
2023/08/01 12:22:26;;;;;;;1.05;0.63;;;;;;;22.39;60.63;100195.34;4972600;28;99331;-28
2023/08/01 12:24:51;;;;;;;1.50;0.60;;;;;;;22.43;61.55;100190.34;4972523;28;96447;-29
2023/08/01 12:27:17;;;;;;;1.25;0.52;;;;;;;22.54;59.24;100200.91;4972989;28;96848;-27
2023/08/01 12:29:42;;;;;;;4.43;0.88;;;;;;;22.51;61.56;100222.50;4972864;28;98077;-27
2023/08/01 12:32:07;;;;;;;1.60;0.63;;;;;;;22.60;60.80;100207.59;4972672;28;97761;-27
2023/08/01 12:34:34;;;;;;;2.15;0.47;;;;;;;22.47;59.48;100216.50;4972826;28;96553;-29
2023/08/01 12:36:59;;;;;;;3.35;0.95;;;;;;;22.57;60.08;100211.59;4971491;28;96894;-27
2023/08/01 12:39:25;;;;;;;2.03;0.60;;;;;;;22.68;58.38;100210.25;4972663;28;97923;-27
2023/08/01 12:41:53;;;;;;;2.42;0.70;;;;;;;22.83;58.87;100211.09;4971419;28;101252;-27
2023/08/01 12:44:19;;;;;;;2.05;0.50;;;;;;;22.92;58.83;100206.34;4970613;28;96903;-27
2023/08/01 12:46:44;;;;;;;1.17;0.40;;;;;;;22.99;58.27;100212.00;4973044;28;96824;-28
2023/08/01 12:49:09;;;;;;;1.67;0.40;;;;;;;23.08;58.10;100210.84;4972028;28;97886;-27
2023/08/01 12:51:35;;;;;;;1.90;0.77;;;;;;;23.22;57.24;100203.59;4972204;28;99130;-27
2023/08/01 12:54:00;;;;;;;3.90;0.55;;;;;;;23.16;57.40;100205.22;4972480;28;96596;-27
2023/08/01 12:56:25;;;;;;;2.53;0.85;;;;;;;22.92;57.06;100211.88;4972711;28;96777;-28
2023/08/01 12:58:51;;;;;;;3.78;0.73;;;;;;;22.80;57.68;100214.25;4971556;28;97918;-27
2023/08/01 13:01:16;;;;;;;2.42;0.90;;;;;;;22.57;57.02;100206.06;4971770;28;97997;-27
2023/08/01 13:03:42;;;;;;;1.15;0.45;;;;;;;22.51;59.47;100219.75;4972245;28;96643;-27
2023/08/01 13:06:11;;;;;;;2.67;1.05;;;;;;;22.43;58.83;100221.56;4972895;28;96799;-28
2023/08/01 13:08:36;;;;;;;1.38;0.50;;;;;;;22.57;59.31;100214.34;4970739;28;99757;-27
2023/08/01 13:11:09;;;;;;;0.52;0.38;;;;;;;22.53;56.60;100223.19;4972329;28;97827;-27
2023/08/01 13:13:35;;;;;;;2.53;0.63;;;;;;;22.37;59.34;100226.94;4970253;28;97234;-28
2023/08/01 13:16:00;;;;;;;3.17;1.02;;;;;;;22.34;60.02;100236.47;4972382;28;97128;-27
2023/08/01 13:18:25;;;;;;;0.93;0.50;;;;;;;22.29;59.26;100233.41;4971885;28;99291;-29
2023/08/01 13:20:51;;;;;;;1.50;0.60;;;;;;;22.39;58.66;100231.25;4972242;28;97636;-29
2023/08/01 13:23:16;;;;;;;2.35;0.70;;;;;;;22.52;59.63;100232.50;4972440;28;96765;-27
2023/08/01 13:25:42;;;;;;;1.25;0.57;;;;;;;22.40;58.96;100227.41;4972043;28;96902;-27
2023/08/01 13:28:08;;;;;;;2.97;0.70;;;;;;;22.39;58.77;100234.00;4971708;28;98015;-27
2023/08/01 13:30:33;;;;;;;3.03;0.80;;;;;;;22.30;59.37;100232.34;4972313;28;97367;-27
2023/08/01 13:32:58;;;;;;;2.40;0.70;;;;;;;22.16;59.44;100239.50;4970799;28;96671;-27
2023/08/01 13:35:24;;;;;;;0.57;0.52;;;;;;;22.12;60.32;100240.94;4971862;28;96918;-27
2023/08/01 13:37:49;;;;;;;2.47;0.90;;;;;;;22.06;60.44;100245.28;4971481;28;97384;-27
2023/08/01 13:40:14;;;;;;;4.13;0.93;;;;;;;22.10;60.47;100239.41;4972105;28;97592;-27
2023/08/01 13:42:40;;;;;;;0.90;0.60;;;;;;;22.06;60.69;100255.44;4971674;28;96661;-27
2023/08/01 13:45:06;;;;;;;2.25;0.73;;;;;;;21.89;60.46;100243.69;4970681;28;97062;-27
2023/08/01 13:47:32;;;;;;;1.90;0.52;;;;;;;21.74;61.26;100246.38;4971714;28;99264;-27
2023/08/01 13:49:57;;;;;;;2.10;0.77;;;;;;;21.75;61.58;100247.22;4971812;28;97788;-27
2023/08/01 13:52:22;;;;;;;0.95;0.47;;;;;;;21.87;61.77;100256.78;4972135;28;96661;-28
2023/08/01 13:54:48;;;;;;;3.30;0.77;;;;;;;22.01;60.45;100244.13;4971930;28;96885;-27
2023/08/01 13:57:13;;;;;;;2.38;0.52;;;;;;;22.25;60.41;100245.84;4971768;28;98023;-28
2023/08/01 13:59:38;;;;;;;1.23;0.70;;;;;;;22.32;59.28;100235.78;4971427;28;97773;-27
2023/08/01 14:02:04;;;;;;;2.20;0.80;;;;;;;22.38;59.66;100240.56;4971218;28;96513;-27
2023/08/01 14:04:30;;;;;;;2.45;1.02;;;;;;;22.50;59.06;100251.16;4970397;28;96820;-27
2023/08/01 14:06:55;;;;;;;2.15;0.80;;;;;;;22.56;59.89;100236.59;4971608;28;97736;-27
2023/08/01 14:09:20;;;;;;;1.63;0.70;;;;;;;22.57;59.83;100233.66;4971446;28;99344;-27
2023/08/01 14:11:46;;;;;;;2.33;0.60;;;;;;;22.57;58.99;100239.19;4973241;28;96592;-27
2023/08/01 14:14:11;;;;;;;1.55;0.77;;;;;;;22.48;59.54;100243.06;4975031;28;96826;-27
2023/08/01 14:16:36;;;;;;;1.88;0.80;;;;;;;22.37;59.04;100241.59;4974804;28;97420;-27
2023/08/01 14:19:03;;;;;;;0.93;0.38;;;;;;;22.40;59.59;100234.84;4975167;28;97422;-28
2023/08/01 14:21:29;;;;;;;0.98;0.47;;;;;;;22.47;58.65;100256.00;4974682;28;96619;-27
2023/08/01 14:23:54;;;;;;;1.52;0.80;;;;;;;22.41;58.11;100245.72;4975045;28;96657;-27
2023/08/01 14:26:19;;;;;;;3.03;0.60;;;;;;;22.33;58.63;100244.91;4974199;28;97934;-27
2023/08/01 14:28:46;;;;;;;1.50;0.43;;;;;;;22.41;59.04;100237.44;4974416;28;99167;-27
2023/08/01 14:31:11;;;;;;;3.85;0.70;;;;;;;22.45;58.79;100255.34;4974700;28;96473;-27
2023/08/01 14:33:36;;;;;;;2.50;1.00;;;;;;;22.36;59.15;100255.59;4974826;28;96820;-28
2023/08/01 14:36:02;;;;;;;1.58;0.60;;;;;;;22.28;58.66;100248.22;4974547;28;97974;-28
2023/08/01 14:38:27;;;;;;;1.10;0.50;;;;;;;22.04;58.21;100250.09;4974327;28;99892;-29
2023/08/01 14:40:53;;;;;;;4.80;0.85;;;;;;;22.16;59.04;100252.44;4974490;28;96493;-27
2023/08/01 14:43:19;;;;;;;1.85;0.95;;;;;;;22.11;58.49;100265.94;4974633;28;96831;-27
2023/08/01 14:45:44;;;;;;;3.08;1.17;;;;;;;21.84;59.13;100265.44;4974410;28;98173;-27
2023/08/01 14:48:10;;;;;;;3.00;0.75;;;;;;;21.65;58.64;100264.00;4974180;28;99286;-27
2023/08/01 14:50:37;;;;;;;1.50;1.02;;;;;;;21.45;59.96;100277.34;4973789;28;96563;-27
2023/08/01 14:53:03;;;;;;;1.42;0.40;;;;;;;21.32;59.93;100268.78;4973016;28;97367;-27
2023/08/01 14:55:29;;;;;;;2.50;0.50;;;;;;;21.29;61.25;100282.94;4973952;28;99628;-27
2023/08/01 14:57:54;;;;;;;3.17;0.75;;;;;;;21.18;60.68;100282.25;4972465;28;100531;-27
2023/08/01 15:00:19;;;;;;;1.30;0.57;;;;;;;21.11;60.61;100277.63;4974364;28;96613;-27
2023/08/01 15:02:45;;;;;;;3.58;0.70;;;;;;;21.04;60.58;100277.47;4974239;28;97182;-27
2023/08/01 15:05:12;;;;;;;2.42;0.40;;;;;;;20.94;61.37;100282.34;4974168;28;97961;-27
2023/08/01 15:07:37;;;;;;;1.17;0.35;;;;;;;20.85;61.79;100277.88;4972807;28;101102;-27
2023/08/01 15:10:03;;;;;;;3.53;0.93;;;;;;;20.84;61.20;100277.03;4974149;28;96485;-27
2023/08/01 15:12:28;;;;;;;1.33;0.52;;;;;;;20.81;61.47;100282.00;4974189;28;96611;-27
2023/08/01 15:14:54;;;;;;;1.77;0.63;;;;;;;20.72;61.03;100275.69;4973217;28;97471;-27
2023/08/01 15:17:20;;;;;;;2.53;0.73;;;;;;;20.63;61.41;100276.72;4972241;28;101065;-28
2023/08/01 15:19:46;;;;;;;1.85;0.50;;;;;;;20.60;61.35;100288.94;4974107;28;96427;-27
2023/08/01 15:22:18;;;;;;;1.88;0.75;;;;;;;20.57;61.31;100292.91;4972849;28;96821;-28
2023/08/01 15:24:45;;;;;;;1.73;0.60;;;;;;;20.53;60.84;100276.88;4973051;28;99324;-27
2023/08/01 15:27:10;;;;;;;2.20;0.55;;;;;;;20.65;61.86;100283.75;4972393;28;100926;-27
2023/08/01 15:29:36;;;;;;;2.80;0.70;;;;;;;20.71;61.56;100279.44;4973673;28;96553;-28
2023/08/01 15:32:02;;;;;;;2.15;0.70;;;;;;;20.66;61.18;100287.38;4970302;28;96772;-27
2023/08/01 15:34:28;;;;;;;2.03;0.60;;;;;;;20.73;61.19;100288.38;4970902;28;99809;-30
2023/08/01 15:36:53;;;;;;;1.00;0.43;;;;;;;20.69;61.28;100289.75;4972216;28;99772;-27
2023/08/01 15:39:19;;;;;;;1.38;0.45;;;;;;;20.64;60.54;100282.06;4971418;28;96766;-27
2023/08/01 15:41:46;;;;;;;1.55;0.70;;;;;;;20.61;60.65;100298.91;4971146;28;96942;-29
2023/08/01 15:44:11;;;;;;;0.63;0.40;;;;;;;20.54;60.47;100286.84;4968930;28;101353;-28
2023/08/01 15:46:37;;;;;;;3.28;1.02;;;;;;;20.58;60.81;100282.75;4971580;28;97608;-27
2023/08/01 15:49:04;;;;;;;5.45;0.52;;;;;;;20.63;61.44;100291.34;4971756;28;97028;-28
2023/08/01 15:51:30;;;;;;;0.93;0.40;;;;;;;20.63;60.78;100291.34;4969988;28;97284;-27
2023/08/01 15:53:55;;;;;;;0.77;0.70;;;;;;;20.57;61.22;100287.38;4971653;28;98043;-27
2023/08/01 15:56:20;;;;;;;0.55;0.28;;;;;;;20.61;60.77;100300.78;4973479;28;98762;-28
2023/08/01 15:58:46;;;;;;;0.65;0.28;;;;;;;20.61;61.40;100296.16;4972913;28;96940;-27
2023/08/01 16:01:11;;;;;;;0.70;0.40;;;;;;;20.55;61.43;100302.31;4973326;28;96849;-27
2023/08/01 16:03:38;;;;;;;1.25;0.50;;;;;;;20.55;61.48;100297.72;4972800;28;97425;-27
2023/08/01 16:06:04;;;;;;;2.45;0.50;;;;;;;20.49;61.25;100300.25;4971627;28;100902;-27
2023/08/01 16:08:30;;;;;;;1.13;0.47;;;;;;;20.41;60.80;100300.28;4971701;28;96888;-27
2023/08/01 16:10:55;;;;;;;2.25;0.63;;;;;;;20.35;61.82;100297.19;4973358;28;96795;-28
2023/08/01 16:13:20;;;;;;;3.72;0.73;;;;;;;20.30;61.06;100293.19;4973155;28;97415;-27
2023/08/01 16:15:46;;;;;;;1.80;0.52;;;;;;;20.28;62.44;100293.34;4972844;28;97344;-28
2023/08/01 16:18:12;;;;;;;1.65;0.50;;;;;;;20.27;62.49;100288.91;4971641;28;96697;-28
2023/08/01 16:20:37;;;;;;;2.47;0.70;;;;;;;20.28;61.95;100298.88;4973454;28;96820;-28
2023/08/01 16:23:03;;;;;;;1.58;0.70;;;;;;;20.20;61.66;100304.38;4972664;28;99546;-27
2023/08/01 16:25:29;;;;;;;0.90;0.43;;;;;;;20.23;61.83;100300.41;4971640;28;100778;-27
2023/08/01 16:27:54;;;;;;;1.35;0.50;;;;;;;20.24;61.85;100300.25;4972423;28;96545;-27
2023/08/01 16:30:20;;;;;;;1.55;0.50;;;;;;;20.22;62.12;100288.56;4972918;28;96769;-27
2023/08/01 16:32:50;;;;;;;0.73;0.40;;;;;;;20.21;62.33;100291.47;4972758;28;98029;-27
2023/08/01 16:35:16;;;;;;;5.85;1.20;;;;;;;20.15;62.51;100293.88;4971086;28;101380;-27
2023/08/01 16:37:42;;;;;;;1.55;0.65;;;;;;;20.18;62.59;100303.69;4971193;28;96884;-27
2023/08/01 16:40:08;;;;;;;1.30;0.65;;;;;;;20.18;62.40;100309.19;4972786;28;96820;-27
2023/08/01 16:42:33;;;;;;;0.60;0.30;;;;;;;20.13;61.63;100295.09;4971151;28;101394;-27
2023/08/01 16:44:59;;;;;;;0.95;0.40;;;;;;;20.07;61.98;100298.50;4972585;28;99430;-27
2023/08/01 16:47:24;;;;;;;2.20;0.93;;;;;;;20.05;62.64;100293.19;4972875;28;96648;-27
2023/08/01 16:49:54;;;;;;;1.30;0.45;;;;;;;20.07;62.81;100301.25;4971607;28;96816;-27
2023/08/01 16:52:20;;;;;;;1.05;0.57;;;;;;;20.00;62.91;100311.19;4970544;28;100915;-27
2023/08/01 16:54:46;;;;;;;1.58;0.50;;;;;;;19.91;62.44;100307.59;4970926;28;100961;-27
2023/08/01 16:57:11;;;;;;;1.80;0.45;;;;;;;;;;4972655;28;96651;-28
2023/08/01 16:59:38;;;;;;;1.70;0.50;;;;;;;19.85;62.81;100300.00;4972333;28;96535;-27
2023/08/01 17:02:04;;;;;;;6.20;0.82;;;;;;;19.82;62.76;100276.47;4972242;28;99375;-27
2023/08/01 17:04:30;;;;;;;1.70;0.55;;;;;;;19.88;62.94;100284.06;4971005;28;100985;-27
2023/08/01 17:06:55;;;;;;;1.13;0.40;;;;;;;19.88;62.57;100278.56;4972128;28;96790;-27
2023/08/01 17:09:20;;;;;;;1.20;0.52;;;;;;;19.94;63.09;100280.63;4972956;28;96762;-27
2023/08/01 17:11:46;;;;;;;1.65;0.38;;;;;;;19.94;62.23;100291.59;4972048;28;99595;-27
2023/08/01 17:14:12;;;;;;;0.82;0.30;;;;;;;19.85;62.63;100287.13;4970673;28;99041;-28
2023/08/01 17:16:38;;;;;;;0.85;0.35;;;;;;;19.85;62.64;100280.78;4971968;28;96782;-27
2023/08/01 17:19:04;;;;;;;0.80;0.40;;;;;;;19.91;63.17;100291.97;4970931;28;97299;-27
2023/08/01 17:21:29;;;;;;;1.33;0.45;;;;;;;19.84;62.67;100279.91;4971747;28;99730;-27
2023/08/01 17:23:54;;;;;;;1.38;0.52;;;;;;;19.82;63.30;100281.97;4972302;28;97668;-27
2023/08/01 17:26:20;;;;;;;1.52;0.52;;;;;;;19.80;62.42;100285.91;4972137;28;96526;-28
2023/08/01 17:28:45;;;;;;;2.42;0.38;;;;;;;19.79;63.25;100287.81;4971990;28;96902;-27
2023/08/01 17:31:12;;;;;;;1.42;0.47;;;;;;;19.72;63.37;100281.28;4972078;28;97897;-28
2023/08/01 17:33:38;;;;;;;1.92;0.57;;;;;;;19.71;63.74;100283.16;4970875;28;101331;-29
2023/08/01 17:36:04;;;;;;;2.63;0.60;;;;;;;19.71;63.64;100280.41;4971968;28;96656;-27
2023/08/01 17:38:29;;;;;;;2.20;0.68;;;;;;;19.69;63.02;100281.63;4971948;28;96917;-28
2023/08/01 17:40:55;;;;;;;0.82;0.40;;;;;;;19.66;63.08;100292.88;4969965;28;101528;-27
2023/08/01 17:43:20;;;;;;;0.57;0.40;;;;;;;19.58;63.35;100279.13;4971175;28;99141;-27
2023/08/01 17:45:46;;;;;;;2.25;0.70;;;;;;;19.59;63.04;100280.84;4972225;28;96533;-27
2023/08/01 17:48:13;;;;;;;1.75;0.43;;;;;;;19.61;63.67;100287.03;4975427;28;96780;-28
2023/08/01 17:50:42;;;;;;;1.40;0.55;;;;;;;19.55;63.00;100266.59;4973758;28;100849;-27
2023/08/01 17:53:07;;;;;;;1.23;0.30;;;;;;;19.50;62.49;100282.72;4975407;28;97365;-27
2023/08/01 17:55:33;;;;;;;1.30;0.47;;;;;;;19.47;62.90;100281.16;4975313;28;96491;-27
2023/08/01 17:57:58;;;;;;;2.85;0.43;;;;;;;19.50;63.75;100289.06;4975164;28;96830;-27
2023/08/01 18:00:25;;;;;;;2.85;0.93;;;;;;;19.49;64.19;100290.06;4975161;28;97887;-27
2023/08/01 18:02:50;;;;;;;0.70;0.52;;;;;;;19.44;64.50;100283.38;4975079;28;98910;-27